createdAt,value
2022-11-24T00:00:27.337Z,14.96
2022-11-24T00:01:32.742Z,15.02
2022-11-24T00:02:35.344Z,14.94
2022-11-24T00:03:39.145Z,15.06
2022-11-24T00:04:42.489Z,14.92
2022-11-24T00:05:46.290Z,14.95
2022-11-24T00:06:49.632Z,14.80
2022-11-24T00:07:51.973Z,14.98
2022-11-24T00:08:56.521Z,15.05
2022-11-24T00:09:59.126Z,14.98
2022-11-24T00:11:07.838Z,14.83
2022-11-24T00:12:11.156Z,14.90
2022-11-24T00:13:13.348Z,14.87
2022-11-24T00:14:16.648Z,14.94
2022-11-24T00:15:19.210Z,14.91
2022-11-24T00:16:24.605Z,14.78
2022-11-24T00:17:27.058Z,14.70
2022-11-24T00:18:30.367Z,14.67
2022-11-24T00:19:33.684Z,14.79
2022-11-24T00:20:35.956Z,14.77
2022-11-24T00:21:40.713Z,14.77
2022-11-24T00:22:43.228Z,14.83
2022-11-24T00:23:47.073Z,14.83
2022-11-24T00:24:49.357Z,14.85
2022-11-24T00:25:52.713Z,14.79
2022-11-24T00:26:55.235Z,14.72
2022-11-24T00:27:58.665Z,14.56
2022-11-24T00:29:03.240Z,14.56
2022-11-24T00:30:07.566Z,14.55
2022-11-24T00:31:17.762Z,14.49
2022-11-24T00:32:21.381Z,14.68
2022-11-24T00:33:23.769Z,14.60
2022-11-24T00:34:27.331Z,14.66
2022-11-24T00:35:29.657Z,14.55
2022-11-24T00:36:35.441Z,14.59
2022-11-24T00:37:39.160Z,14.59
2022-11-24T00:38:42.503Z,14.54
2022-11-24T00:39:44.721Z,14.47
2022-11-24T00:40:48.097Z,14.49
2022-11-24T00:41:50.300Z,14.67
2022-11-24T00:42:53.957Z,14.61
2022-11-24T00:43:57.656Z,14.66
2022-11-24T00:45:12.910Z,14.58
2022-11-24T00:46:16.226Z,14.73
2022-11-24T00:47:19.629Z,14.76
2022-11-24T00:48:22.452Z,14.73
2022-11-24T00:49:25.790Z,14.74
2022-11-24T00:50:28.275Z,14.81
2022-11-24T00:51:31.952Z,14.86
2022-11-24T00:52:34.418Z,14.85
2022-11-24T00:53:39.346Z,14.88
2022-11-24T00:54:41.660Z,15.00
2022-11-24T00:55:45.046Z,14.97
2022-11-24T00:56:47.868Z,15.02
2022-11-24T00:57:51.396Z,14.98
2022-11-24T00:58:54.230Z,14.98
2022-11-24T00:59:57.529Z,14.94
2022-11-24T01:01:02.904Z,14.89
2022-11-24T01:02:06.333Z,14.84
2022-11-24T01:03:08.538Z,14.84
2022-11-24T01:04:11.785Z,14.73
2022-11-24T01:05:14.083Z,14.70
2022-11-24T01:06:20.033Z,14.66
2022-11-24T01:07:22.321Z,14.89
2022-11-24T01:08:25.829Z,14.81
2022-11-24T01:09:29.622Z,14.85
2022-11-24T01:10:33.567Z,14.75
2022-11-24T01:11:51.441Z,14.70
2022-11-24T01:12:54.943Z,14.70
2022-11-24T01:13:59.277Z,14.72
2022-11-24T01:15:02.974Z,14.77
2022-11-24T01:16:05.988Z,14.78
2022-11-24T01:17:09.294Z,14.79
2022-11-24T01:18:11.611Z,14.71
2022-11-24T01:19:15.007Z,14.69
2022-11-24T01:20:17.878Z,14.76
2022-11-24T01:21:21.878Z,14.79
2022-11-24T01:22:25.115Z,14.81
2022-11-24T01:23:28.497Z,14.82
2022-11-24T01:24:32.593Z,14.65
2022-11-24T01:25:36.575Z,14.65
2022-11-24T01:26:39.711Z,14.71
2022-11-24T01:27:42.960Z,14.76
2022-11-24T01:28:47.671Z,14.81
2022-11-24T01:29:51.258Z,14.90
2022-11-24T01:30:58.387Z,15.03
2022-11-24T01:32:01.871Z,15.03
2022-11-24T01:33:05.192Z,15.14
2022-11-24T01:34:08.860Z,15.16
2022-11-24T01:35:11.215Z,15.18
2022-11-24T01:36:14.882Z,15.22
2022-11-24T01:37:17.483Z,15.45
2022-11-24T01:38:21.309Z,15.47
2022-11-24T01:39:24.608Z,15.57
2022-11-24T01:40:28.178Z,15.60
2022-11-24T01:41:31.458Z,15.50
2022-11-24T01:42:53.807Z,15.43
2022-11-24T01:43:56.735Z,15.36
2022-11-24T01:45:33.486Z,15.50
2022-11-24T01:46:42.201Z,15.35
2022-11-24T01:47:45.867Z,15.42
2022-11-24T01:48:52.774Z,15.39
2022-11-24T01:50:00.139Z,15.29
2022-11-24T01:51:10.893Z,15.42
2022-11-24T01:52:20.334Z,15.49
2022-11-24T01:53:24.562Z,15.46
2022-11-24T01:54:31.945Z,15.43
2022-11-24T01:55:39.207Z,15.54
2022-11-24T01:56:46.836Z,15.52
2022-11-24T01:57:52.427Z,15.68
2022-11-24T01:58:58.767Z,15.71
2022-11-24T02:00:05.175Z,15.55
2022-11-24T02:01:09.672Z,15.56
2022-11-24T02:02:12.820Z,15.60
2022-11-24T02:03:19.488Z,15.72
2022-11-24T02:04:25.749Z,15.69
2022-11-24T02:05:34.980Z,15.58
2022-11-24T02:06:39.759Z,15.55
2022-11-24T02:07:43.258Z,15.66
2022-11-24T02:08:51.308Z,15.52
2022-11-24T02:09:57.109Z,15.58
2022-11-24T02:11:02.938Z,15.60
2022-11-24T02:12:08.277Z,15.55
2022-11-24T02:13:11.066Z,15.42
2022-11-24T02:14:17.097Z,15.23
2022-11-24T02:15:20.365Z,15.16
2022-11-24T02:16:24.069Z,15.24
2022-11-24T02:17:26.444Z,15.16
2022-11-24T02:18:30.116Z,15.12
2022-11-24T02:19:44.531Z,15.23
2022-11-24T02:20:47.942Z,15.21
2022-11-24T02:21:50.440Z,15.27
2022-11-24T02:22:58.504Z,15.18
2022-11-24T02:24:07.968Z,15.13
2022-11-24T02:25:18.225Z,15.24
2022-11-24T02:26:30.167Z,15.17
2022-11-24T02:27:33.952Z,15.28
2022-11-24T02:28:36.656Z,15.28
2022-11-24T02:29:41.480Z,15.14
2022-11-24T02:30:43.921Z,15.07
2022-11-24T02:31:50.348Z,15.02
2022-11-24T02:32:53.190Z,15.07
2022-11-24T02:33:57.430Z,15.09
2022-11-24T02:35:03.828Z,15.01
2022-11-24T02:36:07.804Z,15.06
2022-11-24T02:37:10.214Z,15.08
2022-11-24T02:38:14.611Z,14.98
2022-11-24T02:39:17.341Z,14.99
2022-11-24T02:40:25.535Z,14.98
2022-11-24T02:41:29.338Z,15.07
2022-11-24T02:42:38.508Z,15.18
2022-11-24T02:43:43.735Z,15.19
2022-11-24T02:44:52.208Z,15.15
2022-11-24T02:45:54.580Z,15.16
2022-11-24T02:47:05.885Z,15.23
2022-11-24T02:48:08.503Z,15.27
2022-11-24T02:49:11.903Z,15.38
2022-11-24T02:50:14.286Z,15.55
2022-11-24T02:51:17.880Z,15.45
2022-11-24T02:52:20.239Z,15.43
2022-11-24T02:53:23.882Z,15.51
2022-11-24T02:54:26.145Z,15.62
2022-11-24T02:55:29.793Z,15.64
2022-11-24T02:56:33.536Z,15.73
2022-11-24T02:57:36.917Z,15.64
2022-11-24T02:58:39.390Z,15.69
2022-11-24T02:59:42.886Z,15.83
2022-11-24T03:00:45.339Z,15.82
2022-11-24T03:01:48.745Z,15.87
2022-11-24T03:02:51.369Z,15.90
2022-11-24T03:03:54.789Z,15.80
2022-11-24T03:04:57.342Z,15.76
2022-11-24T03:06:00.733Z,15.90
2022-11-24T03:07:03.100Z,15.80
2022-11-24T03:08:06.616Z,15.58
2022-11-24T03:09:09.814Z,15.53
2022-11-24T03:10:13.154Z,15.52
2022-11-24T03:11:15.513Z,15.50
2022-11-24T03:12:20.229Z,15.44
2022-11-24T03:13:22.797Z,15.47
2022-11-24T03:14:26.235Z,15.42
2022-11-24T03:15:28.701Z,15.32
2022-11-24T03:16:32.561Z,15.29
2022-11-24T03:17:34.940Z,15.31
2022-11-24T03:18:38.551Z,15.29
2022-11-24T03:19:41.063Z,15.29
2022-11-24T03:20:44.391Z,15.43
2022-11-24T03:21:46.823Z,15.33
2022-11-24T03:22:50.240Z,15.46
2022-11-24T03:23:53.415Z,15.42
2022-11-24T03:24:56.866Z,15.43
2022-11-24T03:26:08.544Z,15.50
2022-11-24T03:27:12.346Z,15.55
2022-11-24T03:28:16.515Z,15.55
2022-11-24T03:29:19.933Z,15.48
2022-11-24T03:30:22.245Z,15.52
2022-11-24T03:31:26.112Z,15.58
2022-11-24T03:32:28.609Z,15.56
2022-11-24T03:33:32.558Z,15.68
2022-11-24T03:34:35.048Z,15.67
2022-11-24T03:35:38.612Z,15.67
2022-11-24T03:36:41.060Z,15.63
2022-11-24T03:37:44.626Z,15.61
2022-11-24T03:38:47.453Z,15.54
2022-11-24T03:39:50.718Z,15.56
2022-11-24T03:40:53.392Z,15.56
2022-11-24T03:41:56.687Z,15.56
2022-11-24T03:42:58.992Z,15.56
2022-11-24T03:44:04.159Z,15.56
2022-11-24T03:46:30.596Z,15.55
2022-11-24T03:47:32.960Z,15.59
2022-11-24T03:48:36.512Z,15.69
2022-11-24T03:49:39.024Z,15.88
2022-11-24T03:50:42.396Z,16.03
2022-11-24T03:51:45.954Z,16.09
2022-11-24T03:52:48.384Z,16.05
2022-11-24T03:53:52.470Z,16.10
2022-11-24T03:54:55.233Z,16.06
2022-11-24T03:55:59.497Z,16.04
2022-11-24T03:57:02.042Z,16.10
2022-11-24T03:58:05.432Z,16.13
2022-11-24T03:59:09.378Z,16.12
2022-11-24T04:00:13.591Z,16.24
2022-11-24T04:01:17.009Z,16.35
2022-11-24T04:02:20.357Z,16.31
2022-11-24T04:03:23.289Z,16.23
2022-11-24T04:04:26.709Z,16.17
2022-11-24T04:05:28.932Z,16.22
2022-11-24T04:06:32.548Z,16.11
2022-11-24T04:07:34.860Z,16.24
2022-11-24T04:08:38.104Z,16.25
2022-11-24T04:09:40.806Z,16.24
2022-11-24T04:10:44.309Z,16.38
2022-11-24T04:12:04.257Z,16.34
2022-11-24T04:13:12.403Z,16.49
2022-11-24T04:14:16.458Z,16.37
2022-11-24T04:15:21.456Z,16.47
2022-11-24T04:16:24.110Z,16.43
2022-11-24T04:17:27.390Z,16.48
2022-11-24T04:18:30.706Z,16.41
2022-11-24T04:19:32.973Z,16.44
2022-11-24T04:20:36.322Z,16.38
2022-11-24T04:21:38.473Z,16.20
2022-11-24T04:22:41.780Z,16.07
2022-11-24T04:23:43.993Z,16.04
2022-11-24T04:24:47.490Z,16.09
2022-11-24T04:25:49.853Z,16.03
2022-11-24T04:26:53.238Z,15.92
2022-11-24T04:27:56.675Z,15.93
2022-11-24T04:29:00.081Z,16.01
2022-11-24T04:30:04.847Z,15.88
2022-11-24T04:31:08.558Z,15.73
2022-11-24T04:32:11.426Z,15.67
2022-11-24T04:33:15.562Z,15.65
2022-11-24T04:34:18.012Z,15.61
2022-11-24T04:35:22.289Z,15.53
2022-11-24T04:36:24.704Z,15.55
2022-11-24T04:37:28.251Z,15.63
2022-11-24T04:39:20.106Z,15.57
2022-11-24T04:39:55.227Z,15.68
2022-11-24T04:41:01.531Z,15.61
2022-11-24T04:42:04.889Z,15.60
2022-11-24T04:43:06.997Z,15.64
2022-11-24T04:44:10.355Z,15.74
2022-11-24T04:45:15.746Z,15.72
2022-11-24T04:46:19.222Z,15.49
2022-11-24T04:47:23.420Z,15.56
2022-11-24T04:48:26.704Z,15.63
2022-11-24T04:49:29.066Z,15.65
2022-11-24T04:50:32.317Z,15.31
2022-11-24T04:51:34.459Z,15.26
2022-11-24T04:52:37.699Z,15.21
2022-11-24T04:53:40.005Z,15.23
2022-11-24T04:54:43.560Z,15.27
2022-11-24T04:55:45.811Z,15.29
2022-11-24T04:56:51.932Z,15.15
2022-11-24T04:57:54.190Z,15.34
2022-11-24T04:58:57.473Z,15.36
2022-11-24T04:59:59.649Z,15.50
2022-11-24T05:01:08.327Z,15.47
2022-11-24T05:02:10.697Z,15.21
2022-11-24T05:03:14.090Z,15.26
2022-11-24T05:04:17.546Z,15.25
2022-11-24T05:05:21.090Z,14.78
2022-11-24T05:06:23.817Z,14.70
2022-11-24T05:07:27.109Z,14.64
2022-11-24T05:08:29.487Z,14.66
2022-11-24T05:09:58.142Z,14.64
2022-11-24T05:10:55.106Z,14.61
2022-11-24T05:11:58.522Z,14.61
2022-11-24T05:13:01.102Z,14.54
2022-11-24T05:14:04.756Z,14.55
2022-11-24T05:15:08.437Z,14.59
2022-11-24T05:16:13.946Z,14.66
2022-11-24T05:17:16.266Z,14.58
2022-11-24T05:18:19.624Z,14.63
2022-11-24T05:19:21.928Z,14.67
2022-11-24T05:20:26.233Z,14.82
2022-11-24T05:21:28.803Z,14.69
2022-11-24T05:22:32.957Z,14.85
2022-11-24T05:23:36.283Z,14.83
2022-11-24T05:24:39.765Z,14.86
2022-11-24T05:25:47.444Z,14.65
2022-11-24T05:26:51.161Z,14.52
2022-11-24T05:27:53.570Z,14.71
2022-11-24T05:28:56.898Z,14.77
2022-11-24T05:29:59.229Z,14.76
2022-11-24T05:31:03.282Z,14.94
2022-11-24T05:32:07.548Z,14.88
2022-11-24T05:33:17.213Z,14.68
2022-11-24T05:34:19.803Z,14.64
2022-11-24T05:35:23.532Z,14.43
2022-11-24T05:36:44.267Z,14.43
2022-11-24T05:37:47.757Z,14.45
2022-11-24T05:38:50.009Z,14.60
2022-11-24T05:39:54.714Z,14.58
2022-11-24T05:41:01.143Z,14.34
2022-11-24T05:42:26.141Z,14.42
2022-11-24T05:43:28.453Z,14.51
2022-11-24T05:44:32.100Z,14.38
2022-11-24T05:45:34.649Z,14.32
2022-11-24T05:46:38.406Z,14.38
2022-11-24T05:47:42.552Z,14.42
2022-11-24T05:48:45.931Z,14.40
2022-11-24T05:49:48.468Z,14.47
2022-11-24T05:50:55.889Z,14.53
2022-11-24T05:51:58.135Z,14.51
2022-11-24T05:53:04.188Z,14.58
2022-11-24T05:54:06.711Z,14.67
2022-11-24T05:55:12.095Z,14.62
2022-11-24T05:56:14.475Z,14.69
2022-11-24T05:57:18.302Z,14.60
2022-11-24T05:58:22.000Z,14.73
2022-11-24T05:59:24.748Z,14.72
2022-11-24T06:00:29.071Z,14.73
2022-11-24T06:01:31.405Z,14.69
2022-11-24T06:02:34.839Z,14.59
2022-11-24T06:03:38.584Z,14.63
2022-11-24T06:04:41.986Z,14.57
2022-11-24T06:05:48.704Z,14.59
2022-11-24T06:06:51.197Z,14.63
2022-11-24T06:07:55.184Z,14.57
2022-11-24T06:08:57.953Z,14.65
2022-11-24T06:10:01.700Z,14.66
2022-11-24T06:11:17.415Z,14.58
2022-11-24T06:12:21.350Z,14.62
2022-11-24T06:13:23.792Z,14.58
2022-11-24T06:14:27.379Z,14.61
2022-11-24T06:15:30.860Z,14.68
2022-11-24T06:16:33.689Z,14.67
2022-11-24T06:17:37.132Z,14.80
2022-11-24T06:18:41.080Z,14.83
2022-11-24T06:19:47.952Z,14.92
2022-11-24T06:21:09.811Z,14.88
2022-11-24T06:22:13.309Z,14.89
2022-11-24T06:23:16.576Z,14.98
2022-11-24T06:24:18.809Z,15.04
2022-11-24T06:25:22.182Z,15.08
2022-11-24T06:26:24.683Z,14.97
2022-11-24T06:27:27.937Z,15.02
2022-11-24T06:28:30.169Z,14.97
2022-11-24T06:29:33.354Z,14.92
2022-11-24T06:30:35.541Z,14.89
2022-11-24T06:31:38.868Z,15.07
2022-11-24T06:32:49.159Z,15.11
2022-11-24T06:33:54.740Z,15.21
2022-11-24T06:34:58.277Z,15.07
2022-11-24T06:36:04.925Z,15.18
2022-11-24T06:37:08.237Z,15.11
2022-11-24T06:38:11.185Z,15.14
2022-11-24T06:39:14.526Z,15.22
2022-11-24T06:40:17.329Z,15.12
2022-11-24T06:41:21.440Z,15.14
2022-11-24T06:42:23.780Z,14.96
2022-11-24T06:43:28.020Z,15.00
2022-11-24T06:44:31.650Z,15.00
2022-11-24T06:45:34.024Z,15.00
2022-11-24T06:46:37.373Z,14.94
2022-11-24T06:47:39.606Z,14.93
2022-11-24T06:48:42.821Z,14.99
2022-11-24T06:49:46.383Z,15.09
2022-11-24T06:50:49.588Z,14.96
2022-11-24T06:51:51.723Z,14.86
2022-11-24T06:52:56.208Z,14.90
2022-11-24T06:53:58.384Z,14.72
2022-11-24T06:55:01.754Z,14.93
2022-11-24T06:56:06.704Z,14.87
2022-11-24T06:57:11.738Z,14.96
2022-11-24T06:58:14.135Z,15.09
2022-11-24T06:59:19.258Z,15.05
2022-11-24T07:00:21.976Z,14.82
2022-11-24T07:01:27.092Z,14.91
2022-11-24T07:02:30.368Z,14.97
2022-11-24T07:03:32.597Z,14.88
2022-11-24T07:04:36.517Z,14.94
2022-11-24T07:05:40.434Z,14.98
2022-11-24T07:06:44.440Z,14.98
2022-11-24T07:07:46.585Z,14.99
2022-11-24T07:08:50.032Z,15.01
2022-11-24T07:09:53.282Z,15.01
2022-11-24T07:10:55.445Z,15.05
2022-11-24T07:11:58.703Z,15.04
2022-11-24T07:13:04.044Z,15.05
2022-11-24T07:14:07.809Z,15.02
2022-11-24T07:15:11.872Z,14.96
2022-11-24T07:16:15.772Z,14.91
2022-11-24T07:17:19.062Z,15.01
2022-11-24T07:18:21.332Z,15.05
2022-11-24T07:19:25.357Z,15.03
2022-11-24T07:20:27.689Z,15.07
2022-11-24T07:21:32.862Z,15.29
2022-11-24T07:22:35.738Z,15.17
2022-11-24T07:23:39.506Z,15.25
2022-11-24T07:24:42.953Z,15.16
2022-11-24T07:25:45.171Z,15.27
2022-11-24T07:26:48.521Z,15.35
2022-11-24T07:27:55.488Z,15.35
2022-11-24T07:28:58.752Z,15.24
2022-11-24T07:30:02.118Z,15.25
2022-11-24T07:31:06.343Z,15.30
2022-11-24T07:32:09.699Z,15.51
2022-11-24T07:33:13.171Z,15.48
2022-11-24T07:34:16.464Z,15.43
2022-11-24T07:35:18.771Z,15.63
2022-11-24T07:36:22.718Z,15.66
2022-11-24T07:37:31.229Z,15.76
2022-11-24T07:38:35.574Z,15.79
2022-11-24T07:39:38.879Z,15.87
2022-11-24T07:40:41.130Z,15.87
2022-11-24T07:41:44.483Z,15.86
2022-11-24T07:42:46.669Z,15.82
2022-11-24T07:43:50.740Z,15.73
2022-11-24T07:44:53.037Z,15.76
2022-11-24T07:45:56.432Z,15.73
2022-11-24T07:46:59.729Z,15.72
2022-11-24T07:48:03.097Z,15.74
2022-11-24T07:49:05.456Z,15.71
2022-11-24T07:50:10.837Z,15.71
2022-11-24T07:51:14.135Z,15.70
2022-11-24T07:52:16.387Z,15.75
2022-11-24T07:53:21.561Z,15.72
2022-11-24T07:54:24.825Z,15.75
2022-11-24T07:55:26.942Z,15.71
2022-11-24T07:56:30.187Z,15.80
2022-11-24T07:57:32.439Z,15.80
2022-11-24T07:58:37.626Z,15.72
2022-11-24T07:59:39.825Z,15.75
2022-11-24T08:00:43.056Z,15.86
2022-11-24T08:01:46.960Z,15.86
2022-11-24T08:02:49.316Z,15.92
2022-11-24T08:03:52.645Z,16.01
2022-11-24T08:04:55.314Z,15.99
2022-11-24T08:06:23.237Z,15.88
2022-11-24T08:07:23.558Z,15.94
2022-11-24T08:08:33.306Z,15.94
2022-11-24T08:09:36.649Z,16.04
2022-11-24T08:10:40.261Z,16.04
2022-11-24T08:11:43.488Z,16.02
2022-11-24T08:12:46.726Z,16.05
2022-11-24T08:13:49.922Z,16.00
2022-11-24T08:14:52.150Z,16.11
2022-11-24T08:15:55.351Z,16.19
2022-11-24T08:16:59.339Z,16.29
2022-11-24T08:18:02.676Z,16.29
2022-11-24T08:19:06.198Z,16.31
2022-11-24T08:20:10.282Z,16.35
2022-11-24T08:21:15.167Z,16.38
2022-11-24T08:22:17.535Z,16.33
2022-11-24T08:23:20.868Z,16.13
2022-11-24T08:24:25.993Z,16.06
2022-11-24T08:25:32.237Z,16.05
2022-11-24T08:26:35.496Z,16.00
2022-11-24T08:27:38.440Z,16.09
2022-11-24T08:28:42.166Z,16.13
2022-11-24T08:29:45.528Z,16.16
2022-11-24T08:30:47.775Z,16.13
2022-11-24T08:31:50.989Z,16.13
2022-11-24T08:32:53.401Z,16.13
2022-11-24T08:33:56.957Z,16.17
2022-11-24T08:35:13.355Z,16.17
2022-11-24T08:36:18.178Z,16.13
2022-11-24T08:37:21.398Z,16.21
2022-11-24T08:38:23.595Z,16.22
2022-11-24T08:39:28.950Z,16.30
2022-11-24T08:40:32.319Z,16.32
2022-11-24T08:41:34.579Z,16.37
2022-11-24T08:42:37.836Z,16.39
2022-11-24T08:43:40.739Z,16.39
2022-11-24T08:44:44.440Z,16.38
2022-11-24T08:45:46.692Z,16.39
2022-11-24T08:46:50.120Z,16.34
2022-11-24T08:47:54.144Z,16.37
2022-11-24T08:48:57.689Z,16.37
2022-11-24T08:50:00.175Z,16.31
2022-11-24T08:51:08.618Z,16.23
2022-11-24T08:52:12.005Z,16.12
2022-11-24T08:53:14.251Z,16.12
2022-11-24T08:54:18.882Z,16.13
2022-11-24T08:55:22.682Z,16.15
2022-11-24T08:56:27.018Z,16.22
2022-11-24T08:57:30.383Z,16.22
2022-11-24T08:58:33.192Z,16.24
2022-11-24T08:59:36.554Z,16.27
2022-11-24T09:00:38.942Z,16.31
2022-11-24T09:01:43.167Z,16.32
2022-11-24T09:02:45.316Z,16.28
2022-11-24T09:03:51.376Z,16.31
2022-11-24T09:04:54.833Z,16.37
2022-11-24T09:05:57.000Z,16.37
2022-11-24T09:07:00.483Z,16.33
2022-11-24T09:08:02.634Z,16.44
2022-11-24T09:09:06.140Z,16.50
2022-11-24T09:10:09.321Z,16.59
2022-11-24T09:11:15.743Z,16.58
2022-11-24T09:12:19.130Z,16.56
2022-11-24T09:13:21.276Z,16.62
2022-11-24T09:14:24.548Z,16.66
2022-11-24T09:15:27.826Z,16.66
2022-11-24T09:16:31.524Z,16.59
2022-11-24T09:17:35.394Z,16.51
2022-11-24T09:18:39.259Z,16.60
2022-11-24T09:19:42.611Z,16.69
2022-11-24T09:20:45.368Z,16.64
2022-11-24T09:21:49.063Z,16.66
2022-11-24T09:22:52.363Z,16.74
2022-11-24T09:23:56.412Z,16.79
2022-11-24T09:24:58.797Z,16.70
2022-11-24T09:26:05.942Z,16.83
2022-11-24T09:27:10.873Z,16.94
2022-11-24T09:28:14.207Z,16.95
2022-11-24T09:29:17.559Z,16.96
2022-11-24T09:30:20.469Z,16.89
2022-11-24T09:31:25.957Z,16.87
2022-11-24T09:32:30.649Z,16.83
2022-11-24T09:33:33.893Z,16.85
2022-11-24T09:34:37.254Z,16.88
2022-11-24T09:35:39.479Z,16.88
2022-11-24T09:36:43.407Z,16.87
2022-11-24T09:37:48.441Z,16.95
2022-11-24T09:38:50.703Z,16.91
2022-11-24T09:39:54.037Z,16.85
2022-11-24T09:40:56.727Z,16.84
2022-11-24T09:42:08.964Z,16.80
2022-11-24T09:43:24.664Z,16.70
2022-11-24T09:45:10.777Z,16.56
2022-11-24T09:46:21.646Z,16.43
2022-11-24T09:47:36.555Z,16.42
2022-11-24T09:48:43.815Z,16.40
2022-11-24T09:49:55.550Z,16.37
2022-11-24T09:51:02.062Z,16.40
2022-11-24T09:52:10.133Z,16.34
2022-11-24T09:53:20.225Z,16.33
2022-11-24T09:54:27.755Z,16.29
2022-11-24T09:55:39.167Z,16.32
2022-11-24T09:56:43.750Z,16.33
2022-11-24T09:57:52.710Z,16.27
2022-11-24T09:59:02.946Z,16.24
2022-11-24T10:00:14.572Z,16.22
2022-11-24T10:01:19.905Z,16.24
2022-11-24T10:02:23.709Z,16.25
2022-11-24T10:03:32.306Z,16.22
2022-11-24T10:04:40.991Z,16.23
2022-11-24T10:05:43.691Z,16.24
2022-11-24T10:06:51.562Z,16.27
2022-11-24T10:08:04.909Z,16.32
2022-11-24T10:09:15.743Z,16.34
2022-11-24T10:10:25.258Z,16.39
2022-11-24T10:11:38.170Z,16.37
2022-11-24T10:12:56.710Z,16.43
2022-11-24T10:14:43.482Z,16.55
2022-11-24T10:15:54.697Z,16.71
2022-11-24T10:17:08.135Z,16.75
2022-11-24T10:18:36.201Z,16.71
2022-11-24T10:19:48.277Z,16.76
2022-11-24T10:21:00.531Z,16.75
2022-11-24T10:22:17.573Z,16.74
2022-11-24T10:23:39.439Z,16.68
2022-11-24T10:25:13.679Z,16.68
2022-11-24T10:26:20.752Z,16.63
2022-11-24T10:27:28.768Z,16.59
2022-11-24T10:28:41.040Z,16.64
2022-11-24T10:29:50.053Z,16.64
2022-11-24T10:30:53.472Z,16.60
2022-11-24T10:31:58.374Z,16.60
2022-11-24T10:33:07.582Z,16.60
2022-11-24T10:34:14.921Z,16.66
2022-11-24T10:35:21.808Z,16.69
2022-11-24T10:36:37.239Z,16.60
2022-11-24T10:37:48.320Z,16.65
2022-11-24T10:39:00.273Z,16.64
2022-11-24T10:40:33.024Z,16.59
2022-11-24T10:41:43.621Z,16.52
2022-11-24T10:42:49.010Z,16.47
2022-11-24T10:43:52.708Z,16.49
2022-11-24T10:45:05.519Z,16.47
2022-11-24T10:46:16.228Z,16.57
2022-11-24T10:47:20.070Z,16.58
2022-11-24T10:48:28.587Z,16.51
2022-11-24T10:49:33.953Z,16.45
2022-11-24T10:50:40.159Z,16.38
2022-11-24T10:51:53.186Z,16.41
2022-11-24T10:53:08.349Z,16.41
2022-11-24T10:54:17.096Z,16.35
2022-11-24T10:55:21.743Z,16.34
2022-11-24T10:56:25.308Z,16.34
2022-11-24T10:57:31.064Z,16.36
2022-11-24T10:58:38.258Z,16.40
2022-11-24T10:59:42.035Z,16.45
2022-11-24T11:00:45.704Z,16.37
2022-11-24T11:01:50.010Z,16.37
2022-11-24T11:03:13.673Z,16.25
2022-11-24T11:04:20.137Z,16.23
2022-11-24T11:05:42.087Z,16.21
2022-11-24T11:06:45.823Z,16.17
2022-11-24T11:07:49.647Z,16.20
2022-11-24T11:09:19.406Z,16.21
2022-11-24T11:10:24.568Z,16.21
2022-11-24T11:11:29.718Z,16.26
2022-11-24T11:12:44.025Z,16.28
2022-11-24T11:14:02.920Z,16.32
2022-11-24T11:15:24.406Z,16.38
2022-11-24T11:16:35.009Z,16.44
2022-11-24T11:17:39.167Z,16.41
2022-11-24T11:18:50.307Z,16.41
2022-11-24T11:20:02.063Z,16.38
2022-11-24T11:21:07.176Z,16.47
2022-11-24T11:22:21.187Z,16.66
2022-11-24T11:23:29.239Z,16.81
2022-11-24T11:24:31.651Z,16.95
2022-11-24T11:25:38.372Z,17.21
2022-11-24T11:26:42.531Z,17.35
2022-11-24T11:27:45.800Z,17.55
2022-11-24T11:31:15.621Z,17.76
2022-11-24T11:34:56.721Z,18.20
2022-11-24T11:36:03.214Z,18.44
2022-11-24T11:37:06.904Z,18.35
2022-11-24T11:38:12.576Z,18.30
2022-11-24T11:39:27.354Z,18.29
2022-11-24T11:40:33.099Z,18.08
2022-11-24T11:41:42.133Z,17.77
2022-11-24T11:43:05.480Z,17.45
2022-11-24T11:44:22.983Z,17.19
2022-11-24T11:45:30.199Z,17.16
2022-11-24T11:46:35.042Z,17.09
2022-11-24T11:47:45.753Z,17.13
2022-11-24T11:48:48.414Z,17.25
2022-11-24T11:49:52.504Z,17.32
2022-11-24T11:52:42.917Z,17.75
2022-11-24T11:53:55.082Z,17.61
2022-11-24T11:55:39.022Z,17.78
2022-11-24T11:56:46.107Z,17.83
2022-11-24T11:57:57.825Z,17.74
2022-11-24T11:59:25.534Z,17.76
2022-11-24T12:00:31.134Z,17.79
2022-11-24T12:01:57.316Z,17.74
2022-11-24T12:03:20.763Z,17.63
2022-11-24T12:04:36.619Z,17.56
2022-11-24T12:05:52.396Z,17.54
2022-11-24T12:07:13.322Z,17.56
2022-11-24T12:08:26.889Z,17.50
2022-11-24T12:09:42.480Z,17.48
2022-11-24T12:10:51.227Z,17.51
2022-11-24T12:12:07.577Z,17.37
2022-11-24T12:13:33.187Z,17.18
2022-11-24T12:14:45.660Z,17.16
2022-11-24T12:15:51.846Z,17.02
2022-11-24T12:17:03.333Z,17.04
2022-11-24T12:18:55.180Z,17.24
2022-11-24T12:19:57.344Z,17.38
2022-11-24T12:21:09.023Z,17.46
2022-11-24T12:22:24.681Z,17.51
2022-11-24T12:23:39.915Z,17.59
2022-11-24T12:24:51.550Z,17.62
2022-11-24T12:25:59.585Z,17.67
2022-11-24T12:27:06.909Z,17.71
2022-11-24T12:28:25.168Z,17.65
2022-11-24T12:30:03.766Z,17.60
2022-11-24T12:31:08.512Z,17.53
2022-11-24T12:32:28.571Z,17.52
2022-11-24T12:33:57.895Z,17.45
2022-11-24T12:35:18.007Z,17.28
2022-11-24T12:36:33.875Z,17.36
2022-11-24T12:37:52.828Z,17.40
2022-11-24T12:39:04.096Z,17.39
2022-11-24T12:40:16.013Z,17.50
2022-11-24T12:41:45.744Z,17.73
2022-11-24T12:43:00.593Z,18.19
2022-11-24T12:44:05.894Z,18.49
2022-11-24T12:45:15.770Z,18.57
2022-11-24T12:46:25.166Z,18.39
2022-11-24T12:47:38.034Z,18.16
2022-11-24T12:48:54.400Z,17.89
2022-11-24T12:50:08.491Z,18.03
2022-11-24T12:51:17.479Z,18.17
2022-11-24T12:52:25.204Z,18.27
2022-11-24T12:53:32.784Z,18.57
2022-11-24T12:54:39.603Z,18.66
2022-11-24T12:55:44.298Z,18.71
2022-11-24T12:56:57.475Z,18.63
2022-11-24T12:58:11.241Z,18.65
2022-11-24T12:59:25.748Z,18.81
2022-11-24T13:00:35.983Z,18.93
2022-11-24T13:01:44.786Z,19.04
2022-11-24T13:03:01.530Z,19.08
2022-11-24T13:04:17.294Z,19.05
2022-11-24T13:05:26.526Z,18.77
2022-11-24T13:06:49.325Z,18.79
2022-11-24T13:07:59.118Z,18.95
2022-11-24T13:09:09.288Z,19.14
2022-11-24T13:10:55.737Z,18.90
2022-11-24T13:12:12.924Z,18.44
2022-11-24T13:13:16.933Z,18.37
2022-11-24T13:14:23.817Z,18.24
2022-11-24T13:15:45.285Z,18.26
2022-11-24T13:18:48.574Z,17.76
2022-11-24T13:19:53.709Z,17.67
2022-11-24T13:20:56.024Z,17.51
2022-11-24T13:22:17.576Z,17.46
2022-11-24T13:23:28.149Z,17.39
2022-11-24T13:24:34.056Z,17.32
2022-11-24T13:25:38.064Z,17.23
2022-11-24T13:26:47.387Z,17.19
2022-11-24T13:27:53.584Z,17.36
2022-11-24T13:29:08.884Z,17.61
2022-11-24T13:30:50.160Z,17.69
2022-11-24T13:31:53.680Z,17.81
2022-11-24T13:33:01.827Z,18.00
2022-11-24T13:34:54.887Z,18.10
2022-11-24T13:36:52.892Z,18.24
2022-11-24T13:37:55.240Z,18.40
2022-11-24T13:38:59.183Z,18.39
2022-11-24T13:40:05.027Z,18.41
2022-11-24T13:41:27.605Z,18.43
2022-11-24T13:42:42.174Z,18.50
2022-11-24T13:44:21.625Z,18.65
2022-11-24T13:45:50.490Z,18.65
2022-11-24T13:47:05.665Z,18.73
2022-11-24T13:49:01.281Z,18.51
2022-11-24T13:50:05.655Z,18.27
2022-11-24T13:51:23.637Z,18.19
2022-11-24T13:53:01.226Z,18.13
2022-11-24T13:54:04.587Z,17.98
2022-11-24T13:55:26.235Z,17.81
2022-11-24T13:56:32.412Z,17.60
2022-11-24T13:57:35.811Z,17.43
2022-11-24T13:58:40.570Z,17.33
2022-11-24T13:59:43.071Z,17.29
2022-11-24T14:01:05.458Z,17.20
2022-11-24T14:02:23.643Z,17.17
2022-11-24T14:03:30.802Z,17.29
2022-11-24T14:04:35.865Z,17.30
2022-11-24T14:05:47.075Z,17.27
2022-11-24T14:07:01.191Z,17.19
2022-11-24T14:08:21.403Z,17.18
2022-11-24T14:09:29.508Z,17.19
2022-11-24T14:10:36.037Z,17.09
2022-11-24T14:11:39.568Z,17.16
2022-11-24T14:12:43.867Z,17.13
2022-11-24T14:13:46.081Z,17.10
2022-11-24T14:14:50.752Z,16.98
2022-11-24T14:16:02.593Z,17.06
2022-11-24T14:17:16.174Z,17.09
2022-11-24T14:18:23.210Z,17.13
2022-11-24T14:19:30.885Z,17.12
2022-11-24T14:20:35.488Z,17.07
2022-11-24T14:21:41.788Z,16.97
2022-11-24T14:22:44.291Z,17.01
2022-11-24T14:23:51.981Z,16.97
2022-11-24T14:24:57.293Z,16.98
2022-11-24T14:26:00.592Z,16.98
2022-11-24T14:27:03.987Z,17.02
2022-11-24T14:28:21.158Z,16.93
2022-11-24T14:29:28.060Z,16.96